Huvudsida
METAR-TAF:

METAR-TAF

Flygplatser :

Tak, Thailand

latitud: 16-53N, longitud: 099-09E, höjd: 121 m

Aktuellt väderrapport

Denna rapport gjordes för 1 timme och 46 minuter sedan, klockan 11:00 UTC
Temperatur 36°C
Fuktighet 50%
Tryck 1003 hPa
Sikt 10 km eller mer
Spridda moln på en höjd av 2600 ft

METAR: VTPT 241100Z /////KT 9999 SCT026 36/24 Q1003 NOSIG

Tid: 19:46 (12:46 UTC)

Väderprognos

Denna rapport gjordes för 1 timme och 46 minuter sedan, klockan 11:00 UTC
Prognos gäller från 24 kl. 12 UTC till 25 kl. 12 UTC
Vind 7 kt från väst/sydväst
Sikt: 8000 m
Spridda moln på en höjd av 2600 ft
Temporärt
från 24 kl. 12 UTC till 24 kl. 16 UTC
Få moln på en höjd av 2000 ft, Cumulonimbus.
Spridda moln på en höjd av 3000 ft
åska, lätt regn,

TAF: VTPT 241100Z 2412/2512 25007KT 8000 SCT026 TEMPO 2412/2416 -TSRA FEW020CB SCT030

Aktuella väderrapporter och prognoser från 4000 flygplatser (METAR- och TAF-rapporter).

De tillgängliga stationerna syns som gula och röda prickar på kartan.

För musen över prickarna för att se namnen på stationerna.

Klicka sedan för att få väderrapporter och prognoser.

För att ändra kartan: Klicka på de gröna knapparna med ett svart kors på för att zooma in; den gröna knappen med ett streck på för att zooma ut; eller på de gröna pilarna för angränsande kartor.


METAR-TAF: